Time;durP1;ratioP1;P1;durP2;ratioP2;P2;SDS_P1;SDS_P2;PMS_P1;PMS_P2;Temp;Humidity;BMP_temperature;BMP_pressure;BME280_temperature;BME280_humidity;BME280_pressure;Samples;Min_cycle;Max_cycle;Signal;HPM_P1;HPM_P2
2022/01/12 00:00:22;;;;;;;7.42;5.65;;;-0.70;99.90;;;;;;1816354;79;21039;-77
2022/01/12 00:02:49;;;;;;;8.30;5.22;;;-0.80;99.90;;;;;;1806679;78;21079;-75
2022/01/12 00:05:17;;;;;;;7.17;5.30;;;-0.90;99.90;;;;;;1812402;77;21491;-76
2022/01/12 00:07:46;;;;;;;6.00;5.10;;;-0.90;99.90;;;;;;1792023;78;21197;-76
2022/01/12 00:10:13;;;;;;;10.82;5.50;;;-0.90;99.90;;;;;;1806706;77;21079;-75
2022/01/12 00:12:40;;;;;;;8.48;6.40;;;-0.80;99.90;;;;;;1779423;80;21057;-74
2022/01/12 00:15:08;;;;;;;8.73;5.67;;;-0.70;99.90;;;;;;1780863;80;21133;-74
2022/01/12 00:17:35;;;;;;;8.23;5.87;;;-0.80;99.90;;;;;;1785102;79;21489;-76
2022/01/12 00:20:04;;;;;;;8.23;5.90;;;-0.90;99.90;;;;;;1743635;81;21251;-76
2022/01/12 00:22:33;;;;;;;8.65;5.60;;;-0.90;99.90;;;;;;1795882;78;21075;-76
2022/01/12 00:35:44;;;;;;;9.38;6.37;;;-1.00;99.90;;;;;;1813641;77;21273;-76
2022/01/12 00:38:11;;;;;;;8.03;5.37;;;-0.90;99.90;;;;;;1792985;77;21126;-76
2022/01/12 00:40:43;;;;;;;8.63;6.20;;;-1.00;99.90;;;;;;1793769;78;21117;-76
2022/01/12 00:43:10;;;;;;;10.43;6.40;;;-1.00;99.90;;;;;;1788855;80;21428;-74
2022/01/12 00:45:41;;;;;;;16.55;6.25;;;-0.90;99.90;;;;;;1783856;79;21126;-74
2022/01/12 00:48:07;;;;;;;9.48;6.45;;;-0.90;99.90;;;;;;1784175;80;21562;-74
2022/01/12 00:50:35;;;;;;;8.33;5.85;;;-1.00;99.90;;;;;;1745599;80;21467;-74
2022/01/12 00:53:03;;;;;;;9.38;6.37;;;-1.10;99.90;;;;;;1788635;78;21245;-74
2022/01/12 00:55:32;;;;;;;7.15;5.85;;;-1.00;99.90;;;;;;1791232;77;21113;-74
2022/01/12 00:57:59;;;;;;;9.78;6.17;;;-1.00;99.90;;;;;;1802585;77;21137;-76
2022/01/12 01:00:27;;;;;;;10.35;6.28;;;-1.10;99.90;;;;;;1806487;78;21141;-74
2022/01/12 01:02:54;;;;;;;10.93;6.40;;;-1.00;99.90;;;;;;1815745;78;21529;-74
2022/01/12 01:05:23;;;;;;;8.00;6.25;;;-1.10;99.90;;;;;;1780419;80;21145;-75
2022/01/12 01:07:51;;;;;;;7.55;5.85;;;-1.10;99.90;;;;;;1785505;80;21513;-74
2022/01/12 01:12:57;;;;;;;9.53;6.03;;;-1.00;99.90;;;;;;1788939;77;21686;-74
2022/01/12 01:15:42;;;;;;;8.10;5.67;;;-0.90;99.90;;;;;;1789181;78;21105;-73
2022/01/12 01:26:08;;;;;;;10.20;6.40;;;-1.20;99.90;;;;;;1778029;79;21146;-75
2022/01/12 01:28:35;;;;;;;11.28;6.25;;;-1.20;99.90;;;;;;1746516;80;21200;-75
2022/01/12 01:31:04;;;;;;;8.05;5.90;;;-1.20;99.90;;;;;;1737032;80;21102;-74
2022/01/12 01:33:33;;;;;;;9.80;6.45;;;-1.20;99.90;;;;;;1780005;80;21113;-75
2022/01/12 01:36:00;;;;;;;10.65;6.15;;;-1.30;99.90;;;;;;1773986;80;21124;-74
2022/01/12 01:38:27;;;;;;;12.18;6.72;;;-1.30;99.90;;;;;;1779734;80;21157;-74
2022/01/12 01:40:55;;;;;;;11.18;6.12;;;-1.40;99.90;;;;;;1780809;80;21513;-74
2022/01/12 01:43:41;;;;;;;7.78;5.90;;;-1.50;99.90;;;;;;1781605;80;21132;-75
2022/01/12 01:54:10;;;;;;;7.75;5.45;;;-1.50;99.90;;;;;;1781773;80;21250;-75
2022/01/12 01:56:38;;;;;;;6.35;5.47;;;-1.60;99.90;;;;;;1779688;80;21218;-75
2022/01/12 01:59:05;;;;;;;6.97;5.45;;;-1.50;99.90;;;;;;1780271;80;21473;-74
2022/01/12 02:01:32;;;;;;;10.85;5.45;;;-1.60;99.90;;;;;;1780750;80;21262;-76
2022/01/12 02:04:02;;;;;;;7.97;6.28;;;-1.70;99.90;;;;;;1786693;80;21112;-76
2022/01/12 02:06:29;;;;;;;8.03;6.37;;;-1.70;99.90;;;;;;1781213;79;21074;-75
2022/01/12 02:08:56;;;;;;;8.20;5.53;;;-1.70;99.90;;;;;;1780560;80;21109;-74
2022/01/12 02:11:27;;;;;;;6.75;5.08;;;-1.70;99.90;;;;;;1780587;80;21074;-75
2022/01/12 02:13:55;;;;;;;12.43;5.47;;;-1.70;99.90;;;;;;1783500;80;21074;-74
2022/01/12 02:16:30;;;;;;;6.75;5.28;;;-1.80;99.90;;;;;;1780025;80;21179;-75
2022/01/12 02:19:15;;;;;;;7.95;5.58;;;-1.80;99.90;;;;;;1783164;80;21171;-74
2022/01/12 02:36:30;;;;;;;11.22;6.72;;;-1.90;99.90;;;;;;1779128;80;21191;-74
2022/01/12 02:40:53;;;;;;;9.13;6.25;;;-1.90;99.90;;;;;;1779101;80;21113;-74
2022/01/12 02:54:20;;;;;;;8.83;6.67;;;-1.70;99.90;;;;;;1779864;80;21192;-76
2022/01/12 02:56:47;;;;;;;8.85;7.03;;;-1.70;99.90;;;;;;1779280;80;21089;-75
2022/01/12 02:59:15;;;;;;;9.03;6.70;;;-1.90;99.90;;;;;;1781076;80;21237;-76
2022/01/12 03:02:13;;;;;;;8.63;6.22;;;-1.90;99.90;;;;;;1779751;80;21042;-76
2022/01/12 03:04:20;;;;;;;8.70;6.03;;;-1.80;99.90;;;;;;1776642;79;21082;-75
2022/01/12 03:06:47;;;;;;;7.92;6.40;;;-1.90;99.90;;;;;;1779108;80;21176;-76
2022/01/12 03:09:14;;;;;;;8.20;5.75;;;-1.90;99.90;;;;;;1780944;80;21620;-74
2022/01/12 03:11:42;;;;;;;7.67;6.37;;;-1.90;99.90;;;;;;1780344;80;21179;-76
2022/01/12 03:14:10;;;;;;;18.73;6.83;;;-2.00;99.90;;;;;;1780395;80;21082;-76
2022/01/12 03:16:37;;;;;;;9.08;6.62;;;-2.10;99.90;;;;;;1779300;80;21179;-75
2022/01/12 03:19:04;;;;;;;13.58;6.50;;;-2.10;99.90;;;;;;1780348;80;21065;-75
2022/01/12 03:21:33;;;;;;;9.25;6.03;;;-2.10;99.90;;;;;;1785483;80;21272;-76
2022/01/12 03:24:00;;;;;;;7.00;5.83;;;-2.10;99.90;;;;;;1781368;80;21187;-75
2022/01/12 03:26:29;;;;;;;9.38;5.78;;;-2.10;99.90;;;;;;1779485;81;21113;-75
2022/01/12 03:28:57;;;;;;;10.80;6.05;;;-2.10;99.90;;;;;;1782055;80;21167;-76
2022/01/12 03:31:30;;;;;;;10.45;6.05;;;-2.10;99.90;;;;;;1782129;80;21162;-75
2022/01/12 03:34:20;;;;;;;7.62;6.30;;;-2.10;99.90;;;;;;1762922;79;21288;-75
2022/01/12 03:36:42;;;;;;;8.28;6.78;;;-2.10;99.90;;;;;;1783333;80;21175;-76
2022/01/12 03:39:13;;;;;;;7.62;5.90;;;-2.10;99.90;;;;;;1780802;80;21117;-75
2022/01/12 03:41:42;;;;;;;11.10;7.10;;;-2.10;99.90;;;;;;1781250;80;21147;-75
2022/01/12 03:44:10;;;;;;;9.10;6.75;;;-2.10;99.90;;;;;;1781336;80;21085;-75
2022/01/12 03:46:44;;;;;;;16.00;6.90;;;-2.20;99.90;;;;;;1779408;80;21703;-76
2022/01/12 03:49:10;;;;;;;8.55;5.45;;;-2.30;99.90;;;;;;1782653;80;21469;-75
2022/01/12 03:51:37;;;;;;;8.38;6.50;;;-2.20;99.90;;;;;;1784728;80;21105;-73
2022/01/12 03:54:04;;;;;;;10.32;5.75;;;-2.30;99.90;;;;;;1783074;80;21097;-73
2022/01/12 03:56:31;;;;;;;7.85;6.45;;;-2.40;99.90;;;;;;1781671;80;21486;-73
2022/01/12 03:58:59;;;;;;;15.40;6.28;;;-2.30;99.90;;;;;;1784350;80;21237;-73
2022/01/12 04:01:26;;;;;;;7.72;5.87;;;-2.20;99.90;;;;;;1784954;80;21178;-76
2022/01/12 04:04:03;;;;;;;11.88;6.10;;;-2.10;99.90;;;;;;1779808;80;21509;-75
2022/01/12 04:09:11;;;;;;;7.58;6.03;;;-2.30;99.90;;;;;;1784522;79;21178;-75
2022/01/12 04:11:38;;;;;;;9.05;6.33;;;-2.30;99.90;;;;;;1780514;80;21584;-75
2022/01/12 04:14:06;;;;;;;7.85;6.37;;;-2.40;99.90;;;;;;1785559;80;21237;-76
2022/01/12 04:16:35;;;;;;;9.05;6.17;;;-2.40;99.90;;;;;;1780602;80;21112;-75
2022/01/12 04:19:25;;;;;;;13.25;6.78;;;-2.30;99.90;;;;;;1780640;80;21038;-75
2022/01/12 04:21:51;;;;;;;9.05;6.33;;;-2.40;99.90;;;;;;1782647;80;21492;-75
2022/01/12 04:24:18;;;;;;;8.65;6.53;;;-2.40;99.90;;;;;;1784166;80;21105;-75
2022/01/12 04:26:46;;;;;;;10.85;6.87;;;-2.40;99.90;;;;;;1782851;80;21418;-75
2022/01/12 04:29:14;;;;;;;13.32;7.58;;;-2.40;99.90;;;;;;1762454;80;21058;-75
2022/01/12 04:31:42;;;;;;;12.47;7.78;;;-2.40;99.90;;;;;;1782760;80;21234;-75
2022/01/12 04:34:10;;;;;;;14.90;7.42;;;-2.40;99.90;;;;;;1780867;80;21123;-75
2022/01/12 04:36:37;;;;;;;11.25;8.33;;;-2.50;99.90;;;;;;1781362;80;21222;-75
2022/01/12 04:39:04;;;;;;;8.90;7.92;;;-2.50;99.90;;;;;;1781753;80;21132;-76
2022/01/12 04:41:32;;;;;;;11.93;8.45;;;-2.60;99.90;;;;;;1781825;80;21234;-76
2022/01/12 04:44:01;;;;;;;11.60;8.50;;;-2.60;99.90;;;;;;1782804;80;21065;-75
2022/01/12 04:46:37;;;;;;;10.38;8.48;;;-2.60;99.90;;;;;;1784773;80;21159;-75
2022/01/12 04:49:47;;;;;;;12.73;8.18;;;-2.60;99.90;;;;;;1784454;80;21168;-75
2022/01/12 04:51:26;;;;;;;12.88;9.00;;;-2.70;99.90;;;;;;1784078;80;21120;-75
2022/01/12 04:53:54;;;;;;;13.48;8.68;;;-2.70;99.90;;;;;;1780863;80;21151;-76
2022/01/12 04:56:21;;;;;;;12.75;9.13;;;-2.70;99.90;;;;;;1780939;80;21058;-76
2022/01/12 04:58:48;;;;;;;13.40;8.78;;;-2.80;99.90;;;;;;1782642;80;21038;-75
2022/01/12 05:01:23;;;;;;;12.13;8.45;;;-2.70;99.90;;;;;;1785048;80;21101;-75
2022/01/12 05:06:54;;;;;;;10.25;8.20;;;-2.70;99.90;;;;;;1784453;80;21501;-76
2022/01/12 05:09:28;;;;;;;12.68;9.00;;;-2.70;99.90;;;;;;1782886;80;21497;-76
2022/01/12 05:14:36;;;;;;;14.38;9.40;;;-2.70;99.90;;;;;;1780676;79;21607;-75
2022/01/12 05:16:57;;;;;;;15.08;10.05;;;-2.70;99.90;;;;;;1780869;80;21121;-75
2022/01/12 05:19:24;;;;;;;14.40;9.73;;;-2.70;99.90;;;;;;1781949;80;21098;-75
2022/01/12 05:21:51;;;;;;;20.80;10.23;;;-2.70;99.90;;;;;;1781810;80;21167;-76
2022/01/12 05:24:19;;;;;;;16.85;9.03;;;-2.80;99.90;;;;;;1782365;80;21061;-75
2022/01/12 05:26:46;;;;;;;15.23;10.23;;;-2.90;99.90;;;;;;1781729;80;21105;-75
2022/01/12 05:29:13;;;;;;;16.12;9.83;;;-2.80;99.90;;;;;;1780931;80;21179;-75
2022/01/12 05:31:41;;;;;;;14.00;9.18;;;-2.70;99.90;;;;;;1784949;80;21069;-76
2022/01/12 05:34:08;;;;;;;12.40;8.98;;;-2.70;99.90;;;;;;1781123;80;21116;-75
2022/01/12 05:36:36;;;;;;;14.47;9.88;;;-2.80;99.90;;;;;;1780621;80;21329;-75
2022/01/12 05:39:04;;;;;;;15.25;9.48;;;-2.80;99.90;;;;;;1780992;80;21104;-75
2022/01/12 05:41:31;;;;;;;16.40;9.30;;;-2.90;99.90;;;;;;1780756;80;21207;-75
2022/01/12 05:43:58;;;;;;;11.28;9.23;;;-2.90;99.90;;;;;;1782469;80;21109;-76
2022/01/12 05:46:27;;;;;;;13.85;9.48;;;-3.00;99.90;;;;;;1781454;80;21132;-75
2022/01/12 05:51:40;;;;;;;12.85;9.83;;;-2.90;99.90;;;;;;1782068;80;21667;-76
2022/01/12 05:54:07;;;;;;;14.25;10.45;;;-2.80;99.90;;;;;;1781393;80;21134;-75
2022/01/12 05:56:35;;;;;;;14.25;10.38;;;-2.80;99.90;;;;;;1781529;80;21113;-76
2022/01/12 05:59:02;;;;;;;16.70;10.40;;;-2.80;99.90;;;;;;1782261;80;21092;-75
2022/01/12 06:01:29;;;;;;;16.97;11.15;;;-2.80;99.90;;;;;;1783262;80;21096;-75
2022/01/12 06:03:57;;;;;;;14.35;11.10;;;-2.90;99.90;;;;;;1783598;80;21176;-75
2022/01/12 06:06:25;;;;;;;14.50;11.30;;;-2.90;99.90;;;;;;1782809;80;21206;-75
2022/01/12 06:08:52;;;;;;;18.60;10.32;;;-2.80;99.90;;;;;;1782771;80;21074;-76
2022/01/12 06:11:19;;;;;;;15.45;11.53;;;-2.90;99.90;;;;;;1781894;80;21159;-76
2022/01/12 06:13:46;;;;;;;20.23;11.33;;;-2.90;99.90;;;;;;1782509;80;21221;-76
2022/01/12 06:16:14;;;;;;;19.52;11.28;;;-2.90;99.90;;;;;;1781309;80;21065;-76
2022/01/12 06:18:41;;;;;;;18.32;12.50;;;-2.90;99.90;;;;;;1781914;80;21508;-74
2022/01/12 06:21:08;;;;;;;20.02;11.97;;;-2.90;99.90;;;;;;1780635;80;21066;-72
2022/01/12 06:23:36;;;;;;;17.48;11.25;;;-2.90;99.90;;;;;;1780695;80;21547;-73
2022/01/12 06:26:04;;;;;;;14.47;11.40;;;-2.90;99.90;;;;;;1780613;80;21179;-76
2022/01/12 06:31:13;;;;;;;18.15;12.10;;;-2.90;99.90;;;;;;1781254;80;21182;-75
2022/01/12 06:33:43;;;;;;;16.23;11.22;;;-3.00;99.90;;;;;;1782473;80;21136;-76
2022/01/12 06:36:13;;;;;;;15.68;12.05;;;-3.00;99.90;;;;;;1782468;80;21531;-75
2022/01/12 06:38:40;;;;;;;16.37;12.07;;;-3.10;99.90;;;;;;1766877;79;21089;-75
2022/01/12 06:41:07;;;;;;;19.12;12.25;;;-3.00;99.90;;;;;;1781507;80;21344;-75
2022/01/12 06:43:36;;;;;;;15.75;12.07;;;-3.00;99.90;;;;;;1782387;80;21030;-75
2022/01/12 06:46:04;;;;;;;17.70;12.20;;;-3.00;99.90;;;;;;1781286;80;21109;-76
2022/01/12 06:48:33;;;;;;;21.73;12.28;;;-3.00;99.90;;;;;;1781220;80;21481;-75
2022/01/12 06:51:01;;;;;;;21.27;12.33;;;-2.90;99.90;;;;;;1781293;80;21101;-75
2022/01/12 06:53:28;;;;;;;18.35;11.35;;;-2.90;99.90;;;;;;1782117;80;21128;-73
2022/01/12 06:55:56;;;;;;;16.37;11.03;;;-2.80;99.90;;;;;;1782589;80;21109;-73
2022/01/12 06:58:23;;;;;;;17.02;12.40;;;-2.80;99.90;;;;;;1781258;80;21211;-74
2022/01/12 07:00:51;;;;;;;23.10;12.65;;;-2.90;99.90;;;;;;1781179;80;21100;-73
2022/01/12 07:03:18;;;;;;;17.10;11.73;;;-2.90;99.90;;;;;;1781629;80;21167;-74
2022/01/12 07:05:48;;;;;;;15.60;11.63;;;-2.90;99.90;;;;;;1781056;80;21144;-77
2022/01/12 07:08:16;;;;;;;19.73;12.75;;;-3.00;99.90;;;;;;1781412;80;21129;-74
2022/01/12 07:10:44;;;;;;;23.60;12.75;;;-3.00;99.90;;;;;;1780891;80;21123;-75
2022/01/12 07:13:13;;;;;;;18.17;11.97;;;-3.00;99.90;;;;;;1782140;80;21179;-73
2022/01/12 07:15:42;;;;;;;18.30;11.65;;;-3.00;99.90;;;;;;1782124;80;21200;-73
2022/01/12 07:18:09;;;;;;;17.52;11.80;;;-3.00;99.90;;;;;;1782684;80;21519;-73
2022/01/12 07:20:36;;;;;;;16.45;12.03;;;-3.00;99.90;;;;;;1784475;80;21184;-73
2022/01/12 07:23:04;;;;;;;17.55;12.18;;;-3.00;99.90;;;;;;1786425;80;21525;-75
2022/01/12 07:25:31;;;;;;;14.10;11.57;;;-3.00;99.90;;;;;;1782188;80;21101;-71
2022/01/12 07:27:59;;;;;;;19.80;12.28;;;-2.90;99.90;;;;;;1782982;80;21101;-70
2022/01/12 07:30:26;;;;;;;18.02;11.63;;;-2.90;99.90;;;;;;1781873;80;21257;-70
2022/01/12 07:32:54;;;;;;;15.32;10.60;;;-2.80;99.90;;;;;;1780623;80;21082;-70
2022/01/12 07:35:21;;;;;;;18.40;10.98;;;-2.80;99.90;;;;;;1782557;80;21456;-69
2022/01/12 07:37:49;;;;;;;18.00;12.00;;;-2.90;99.90;;;;;;1781695;80;21098;-70
2022/01/12 07:40:16;;;;;;;21.30;11.93;;;-2.80;99.90;;;;;;1788735;79;21143;-70
2022/01/12 07:42:44;;;;;;;21.87;11.78;;;-2.80;99.90;;;;;;1788588;80;21089;-69
2022/01/12 07:45:11;;;;;;;19.15;11.43;;;-2.70;99.90;;;;;;1780827;80;21163;-67
2022/01/12 07:47:39;;;;;;;20.17;12.93;;;-2.60;99.90;;;;;;1780714;80;21066;-68
2022/01/12 07:50:07;;;;;;;17.92;12.07;;;-2.60;99.90;;;;;;1785275;80;21100;-68
2022/01/12 07:52:34;;;;;;;19.70;13.65;;;-2.60;99.90;;;;;;1782555;80;21572;-68
2022/01/12 07:55:02;;;;;;;21.15;14.05;;;-2.60;99.90;;;;;;1782264;80;21111;-70
2022/01/12 07:57:29;;;;;;;22.73;13.45;;;-2.60;99.90;;;;;;1783152;80;21105;-68
2022/01/12 07:59:57;;;;;;;22.30;13.95;;;-2.50;99.90;;;;;;1785165;80;21506;-69
2022/01/12 08:02:24;;;;;;;18.60;12.45;;;-2.40;99.90;;;;;;1782062;80;21105;-69
2022/01/12 08:04:51;;;;;;;18.15;12.78;;;-2.30;99.90;;;;;;1783232;80;21462;-69
2022/01/12 08:07:18;;;;;;;19.62;12.78;;;-2.40;99.90;;;;;;1785393;80;21167;-70
2022/01/12 08:09:46;;;;;;;17.50;12.37;;;-2.20;99.90;;;;;;1782008;80;21132;-69
2022/01/12 08:12:13;;;;;;;19.27;12.75;;;-2.10;99.90;;;;;;1783290;80;21579;-70
2022/01/12 08:14:40;;;;;;;19.30;13.38;;;-2.00;99.90;;;;;;1787040;80;21100;-70
2022/01/12 08:17:08;;;;;;;27.07;16.23;;;-2.00;99.90;;;;;;1788098;80;21522;-69
2022/01/12 08:19:37;;;;;;;19.90;14.00;;;-1.90;99.90;;;;;;1788103;80;21061;-69
2022/01/12 08:22:05;;;;;;;19.25;14.05;;;-1.80;99.90;;;;;;1786022;80;21268;-69
2022/01/12 08:24:32;;;;;;;25.60;14.78;;;-1.80;99.90;;;;;;1780674;80;21078;-69
2022/01/12 08:26:59;;;;;;;23.42;14.25;;;-1.70;99.90;;;;;;1786087;80;21096;-69
2022/01/12 08:29:28;;;;;;;25.82;13.53;;;-1.60;99.90;;;;;;1780930;80;21073;-68
2022/01/12 08:31:56;;;;;;;24.12;14.83;;;-1.30;99.90;;;;;;1782689;80;21571;-69
2022/01/12 08:34:23;;;;;;;22.00;14.50;;;-1.30;99.90;;;;;;1780830;80;21174;-70
2022/01/12 08:36:50;;;;;;;14.65;12.20;;;-1.30;99.90;;;;;;1781988;80;21097;-69
2022/01/12 08:39:18;;;;;;;19.42;13.60;;;-1.20;99.90;;;;;;1781249;80;21045;-70
2022/01/12 08:41:45;;;;;;;17.40;13.38;;;-1.10;99.90;;;;;;1781917;80;21513;-69
2022/01/12 08:44:12;;;;;;;24.87;14.13;;;-0.80;99.90;;;;;;1783198;80;21070;-71
2022/01/12 08:46:41;;;;;;;21.73;14.20;;;-0.60;99.90;;;;;;1781931;80;21041;-68
2022/01/12 08:49:08;;;;;;;20.40;13.32;;;-0.50;99.90;;;;;;1782669;80;21151;-70
2022/01/12 08:51:36;;;;;;;18.52;12.75;;;-0.60;99.90;;;;;;1785990;80;21152;-72
2022/01/12 08:54:05;;;;;;;21.20;13.32;;;-0.50;99.90;;;;;;1784319;80;21560;-73
2022/01/12 08:56:32;;;;;;;17.90;13.15;;;-0.60;99.90;;;;;;1781946;80;21191;-74
2022/01/12 08:59:00;;;;;;;16.65;12.68;;;-0.40;99.90;;;;;;1782700;80;21183;-73
2022/01/12 09:01:27;;;;;;;21.50;12.80;;;-0.30;99.90;;;;;;1784442;80;21104;-74
2022/01/12 09:03:54;;;;;;;23.50;14.45;;;-0.30;99.90;;;;;;1782335;79;21096;-76
2022/01/12 09:06:22;;;;;;;23.10;15.03;;;-0.20;99.90;;;;;;1780667;80;21066;-72
2022/01/12 09:08:49;;;;;;;24.20;14.03;;;0.20;99.90;;;;;;1780532;80;21059;-73
2022/01/12 09:11:18;;;;;;;19.87;13.08;;;0.20;99.90;;;;;;1780676;80;21222;-73
2022/01/12 09:13:46;;;;;;;20.32;13.60;;;0.30;99.90;;;;;;1780822;80;21494;-74
2022/01/12 09:16:14;;;;;;;29.15;13.88;;;0.00;99.90;;;;;;1782159;80;21131;-72
2022/01/12 09:18:43;;;;;;;23.10;13.62;;;0.00;99.90;;;;;;1781104;80;21104;-72
2022/01/12 09:21:10;;;;;;;25.68;14.47;;;-0.20;99.90;;;;;;1782288;80;21163;-72
2022/01/12 09:23:37;;;;;;;19.32;13.58;;;-0.10;99.90;;;;;;1781689;80;21168;-71
2022/01/12 09:26:05;;;;;;;24.55;14.50;;;-0.10;99.90;;;;;;1781809;80;21198;-70
2022/01/12 09:28:32;;;;;;;28.77;13.48;;;0.00;99.90;;;;;;1781044;80;21181;-71
2022/01/12 09:31:00;;;;;;;30.12;12.37;;;0.20;99.90;;;;;;1782753;80;21464;-73
2022/01/12 09:33:27;;;;;;;16.95;12.98;;;0.30;99.90;;;;;;1781209;80;21088;-74
2022/01/12 09:35:54;;;;;;;24.52;14.07;;;0.60;99.90;;;;;;1782383;80;21470;-74
2022/01/12 09:38:22;;;;;;;19.73;13.22;;;1.00;99.90;;;;;;1781008;80;21113;-74
2022/01/12 09:40:54;;;;;;;16.77;11.45;;;1.40;99.90;;;;;;1782015;80;21230;-74
2022/01/12 09:43:24;;;;;;;17.12;11.57;;;1.60;99.90;;;;;;1782511;80;21045;-74
2022/01/12 09:45:52;;;;;;;16.82;11.08;;;1.80;99.90;;;;;;1775522;80;21112;-75
2022/01/12 09:48:20;;;;;;;16.62;9.70;;;2.00;99.90;;;;;;1781744;80;21174;-71
2022/01/12 09:50:47;;;;;;;19.48;12.40;;;2.10;99.90;;;;;;1782720;80;21069;-73
2022/01/12 09:53:15;;;;;;;17.70;11.43;;;2.10;99.90;;;;;;1781155;80;21108;-74
2022/01/12 09:55:42;;;;;;;13.65;9.70;;;2.30;99.90;;;;;;1781687;80;21175;-75
2022/01/12 09:58:09;;;;;;;16.52;11.53;;;2.40;99.90;;;;;;1782466;80;21073;-74
2022/01/12 10:00:36;;;;;;;13.70;8.95;;;2.30;99.90;;;;;;1781785;80;21234;-73
2022/01/12 10:03:12;;;;;;;10.40;8.88;;;2.20;99.90;;;;;;1782199;80;21057;-73
2022/01/12 10:05:39;;;;;;;15.88;10.38;;;2.30;99.90;;;;;;1782764;80;21017;-74
2022/01/12 10:08:11;;;;;;;10.50;9.10;;;2.40;99.90;;;;;;1783829;80;21151;-74
2022/01/12 10:10:39;;;;;;;11.28;8.05;;;2.50;99.90;;;;;;1780753;80;21101;-74
2022/01/12 10:13:22;;;;;;;13.43;9.40;;;2.60;99.90;;;;;;1781656;80;21156;-74
2022/01/12 10:15:46;;;;;;;11.22;9.45;;;2.50;99.90;;;;;;1782134;80;21155;-75
2022/01/12 10:18:13;;;;;;;18.32;10.25;;;2.30;99.90;;;;;;1783245;80;21520;-74
2022/01/12 10:20:44;;;;;;;11.68;9.00;;;1.80;99.90;;;;;;1784143;80;21112;-74
2022/01/12 10:23:17;;;;;;;11.12;8.80;;;1.70;99.90;;;;;;1787410;80;21081;-71
2022/01/12 10:25:41;;;;;;;14.63;8.98;;;2.10;99.90;;;;;;1785611;80;21179;-71
2022/01/12 10:28:18;;;;;;;13.15;9.48;;;2.90;99.90;;;;;;1763089;79;21544;-70
2022/01/12 10:31:00;;;;;;;11.68;7.85;;;3.10;99.90;;;;;;1781367;80;21104;-68
2022/01/12 10:33:29;;;;;;;10.53;8.15;;;3.60;99.90;;;;;;1782776;80;21146;-70
2022/01/12 10:35:59;;;;;;;12.25;9.18;;;3.60;99.90;;;;;;1782133;80;21164;-70
2022/01/12 10:38:26;;;;;;;14.23;9.40;;;3.70;99.90;;;;;;1782621;80;21187;-70
2022/01/12 10:40:58;;;;;;;12.30;8.90;;;4.00;99.90;;;;;;1783671;80;21057;-70
2022/01/12 10:43:29;;;;;;;11.28;9.15;;;4.20;99.90;;;;;;1782500;80;21110;-73
2022/01/12 10:45:57;;;;;;;12.88;8.18;;;3.90;99.90;;;;;;1782820;80;21206;-70
2022/01/12 10:48:25;;;;;;;16.02;8.33;;;4.30;99.90;;;;;;1782664;80;21131;-71
2022/01/12 10:50:59;;;;;;;10.90;8.15;;;4.00;99.90;;;;;;1782452;80;21113;-71
2022/01/12 10:53:34;;;;;;;10.32;8.00;;;3.80;99.90;;;;;;1780901;80;21116;-71
2022/01/12 10:56:12;;;;;;;9.13;7.58;;;3.90;99.90;;;;;;1782265;80;21559;-71
2022/01/12 10:58:41;;;;;;;10.55;7.80;;;4.50;99.90;;;;;;1782166;80;21139;-73
2022/01/12 11:01:10;;;;;;;12.58;7.03;;;4.80;99.90;;;;;;1781852;80;21191;-72
2022/01/12 11:03:37;;;;;;;11.35;7.30;;;5.50;99.90;;;;;;1781206;80;21211;-72
2022/01/12 11:06:06;;;;;;;10.28;7.53;;;6.20;99.90;;;;;;1777640;80;21475;-72
2022/01/12 11:08:34;;;;;;;21.05;8.65;;;6.50;99.90;;;;;;1785830;80;21101;-73
2022/01/12 11:11:01;;;;;;;10.08;7.47;;;6.40;99.90;;;;;;1782933;80;21097;-75
2022/01/12 11:13:29;;;;;;;10.43;7.78;;;6.20;99.90;;;;;;1781457;80;21139;-73
2022/01/12 11:15:57;;;;;;;9.98;8.00;;;6.30;99.90;;;;;;1781640;80;21132;-73
2022/01/12 11:18:26;;;;;;;9.58;7.60;;;6.20;99.90;;;;;;1781785;80;21536;-73
2022/01/12 11:20:56;;;;;;;9.70;7.30;;;5.50;99.90;;;;;;1781595;80;21101;-74
2022/01/12 11:23:27;;;;;;;11.18;8.40;;;5.40;99.90;;;;;;1782862;80;21147;-73
2022/01/12 11:25:54;;;;;;;8.55;7.17;;;5.00;99.90;;;;;;1780168;80;21508;-74
2022/01/12 11:31:31;;;;;;;12.85;7.85;;;5.50;99.90;;;;;;1775811;80;21190;-74
2022/01/12 11:33:58;;;;;;;13.60;8.30;;;5.80;99.90;;;;;;1775580;79;21112;-75
2022/01/12 11:36:29;;;;;;;16.17;8.15;;;5.70;99.90;;;;;;1765842;80;21210;-72
2022/01/12 11:39:07;;;;;;;11.35;7.65;;;5.60;99.90;;;;;;1764540;80;21122;-72
2022/01/12 11:41:35;;;;;;;11.78;8.05;;;5.30;99.90;;;;;;1761125;81;21037;-78
2022/01/12 11:44:06;;;;;;;13.90;7.55;;;5.10;99.90;;;;;;1786333;80;21124;-77
2022/01/12 11:46:44;;;;;;;9.30;7.58;;;5.30;99.90;;;;;;1776092;80;21128;-77
2022/01/12 11:49:12;;;;;;;8.38;6.83;;;5.50;99.90;;;;;;1765777;81;21625;-77
2022/01/12 11:51:41;;;;;;;9.45;6.92;;;4.80;99.90;;;;;;1767994;80;21108;-76
2022/01/12 11:54:13;;;;;;;9.30;6.08;;;5.30;99.90;;;;;;1765785;80;21124;-76
2022/01/12 11:56:55;;;;;;;10.68;6.35;;;5.50;99.90;;;;;;1767961;80;21113;-76
2022/01/12 11:59:24;;;;;;;7.03;6.33;;;5.10;99.90;;;;;;1754498;80;21155;-77
2022/01/12 12:02:08;;;;;;;7.83;6.65;;;5.00;99.90;;;;;;1788825;80;21104;-74
2022/01/12 12:04:35;;;;;;;13.30;8.70;;;5.10;99.90;;;;;;1767248;80;21130;-73
2022/01/12 12:07:11;;;;;;;11.35;8.60;;;5.20;99.90;;;;;;1765973;80;21101;-73
2022/01/12 12:09:43;;;;;;;14.60;8.60;;;6.10;99.90;;;;;;1767009;79;21186;-75
2022/01/12 12:12:15;;;;;;;12.50;8.33;;;6.10;99.90;;;;;;1765825;81;21065;-76
2022/01/12 12:14:53;;;;;;;8.93;7.22;;;5.90;99.90;;;;;;1781280;80;21179;-73
2022/01/12 12:17:21;;;;;;;12.23;8.23;;;5.60;99.90;;;;;;1782938;80;21603;-77
2022/01/12 12:19:48;;;;;;;12.37;8.85;;;5.30;99.90;;;;;;1772737;80;21163;-76
2022/01/12 12:22:19;;;;;;;12.63;9.23;;;5.10;99.90;;;;;;1765932;81;21139;-76
2022/01/12 12:24:48;;;;;;;10.60;8.43;;;4.60;99.90;;;;;;1774011;79;21091;-76
2022/01/12 12:27:22;;;;;;;14.13;8.43;;;5.00;99.90;;;;;;1766921;80;21085;-74
2022/01/12 12:29:49;;;;;;;13.48;8.23;;;5.40;99.90;;;;;;1767994;80;21179;-75
2022/01/12 12:32:18;;;;;;;14.03;9.38;;;5.30;99.90;;;;;;1767953;80;21046;-74
2022/01/12 12:34:45;;;;;;;13.00;8.93;;;5.50;99.90;;;;;;1769271;80;21533;-74
2022/01/12 12:37:17;;;;;;;12.23;8.53;;;5.70;99.90;;;;;;1767148;80;21119;-74
2022/01/12 12:39:46;;;;;;;18.42;8.75;;;5.60;99.90;;;;;;1766040;80;21038;-74
2022/01/12 12:42:19;;;;;;;14.45;8.35;;;6.00;99.90;;;;;;1780380;80;21485;-73
2022/01/12 12:44:49;;;;;;;11.85;8.13;;;6.20;99.90;;;;;;1785969;80;21180;-74
2022/01/12 12:47:19;;;;;;;13.98;9.70;;;6.20;99.90;;;;;;1757566;81;21528;-73
2022/01/12 12:49:51;;;;;;;11.25;9.00;;;6.30;99.90;;;;;;1765936;81;21139;-73
2022/01/12 12:52:23;;;;;;;16.05;8.30;;;6.20;99.90;;;;;;1768223;80;21108;-74
2022/01/12 12:54:50;;;;;;;11.75;7.87;;;6.00;99.90;;;;;;1766257;80;21077;-73
2022/01/12 12:57:21;;;;;;;11.70;8.53;;;6.10;99.90;;;;;;1794355;80;21528;-74
2022/01/12 12:59:47;;;;;;;11.20;8.60;;;6.40;99.90;;;;;;1779123;79;21105;-74
2022/01/12 13:02:14;;;;;;;12.73;8.20;;;6.20;99.90;;;;;;1767873;80;21191;-73
2022/01/12 13:04:41;;;;;;;13.48;8.65;;;5.50;99.90;;;;;;1774982;80;21585;-73
2022/01/12 13:07:14;;;;;;;14.58;9.03;;;5.70;99.90;;;;;;1773443;80;21125;-72
2022/01/12 13:09:41;;;;;;;14.45;8.33;;;6.10;99.90;;;;;;1781625;79;21089;-75
2022/01/12 13:12:09;;;;;;;12.88;8.68;;;5.50;99.90;;;;;;1785193;80;21192;-74
2022/01/12 13:14:45;;;;;;;13.50;8.53;;;6.20;99.90;;;;;;1787728;80;21268;-74
2022/01/12 13:17:12;;;;;;;14.70;8.65;;;5.70;99.90;;;;;;1781538;80;21108;-75
2022/01/12 13:22:33;;;;;;;13.45;9.30;;;6.60;99.90;;;;;;1774622;80;21207;-75
2022/01/12 13:25:01;;;;;;;11.88;7.92;;;6.60;99.90;;;;;;1766005;80;21093;-74
2022/01/12 13:27:28;;;;;;;10.80;8.35;;;6.30;99.90;;;;;;1765900;81;21074;-74
2022/01/12 13:29:56;;;;;;;10.93;8.73;;;6.50;99.90;;;;;;1785344;80;21517;-73
2022/01/12 13:32:23;;;;;;;10.70;8.30;;;7.00;99.90;;;;;;1781240;80;21077;-73
2022/01/12 13:34:59;;;;;;;12.78;8.28;;;7.20;99.90;;;;;;1776666;80;21116;-76
2022/01/12 13:37:27;;;;;;;14.03;8.08;;;7.00;99.90;;;;;;1785861;80;21123;-78
2022/01/12 13:40:14;;;;;;;13.83;8.73;;;7.20;99.90;;;;;;1781702;80;21524;-78
2022/01/12 13:42:54;;;;;;;11.15;8.68;;;6.80;99.90;;;;;;1765893;80;21178;-78
2022/01/12 13:45:27;;;;;;;16.55;9.05;;;7.00;99.90;;;;;;1775049;80;21089;-79
2022/01/12 13:48:01;;;;;;;9.78;8.00;;;7.30;99.90;;;;;;1779209;80;21094;-79
2022/01/12 13:50:26;;;;;;;;;;;7.20;99.90;;;;;;1783727;80;21484;-77
2022/01/12 13:52:54;;;;;;;11.55;8.58;;;7.30;99.90;;;;;;1763247;80;20221;-76
2022/01/12 13:55:21;;;;;;;23.45;8.40;;;7.70;99.90;;;;;;1762723;81;21461;-77
2022/01/12 13:58:04;;;;;;;8.53;7.47;;;7.40;99.90;;;;;;1762597;79;21192;-76
2022/01/12 14:00:29;;;;;;;11.00;7.03;;;7.00;99.90;;;;;;1807822;78;21120;-76
2022/01/12 14:02:57;;;;;;;8.43;6.83;;;7.20;99.90;;;;;;1808975;79;21171;-76
2022/01/12 14:05:39;;;;;;;12.35;7.40;;;6.30;99.90;;;;;;1806666;79;21094;-76